Alaska Titan — WDE4789 — position and weather

sailwx.info

Track history (hours):
 
Tides and Currents Weather Stations Pressure Air Temp Water Temp Dewpoint Dewpoint Depression Visibility Wind Speed Wind Dir Waves Ship Positions

Alaska Titan

Owner: WESTERN TOWBOAT CO, Seattle, WA. More information available from US FCC via Universal Licensing System and Coast Guard Vessel Documentation Center.

Last reported at 2017-Dec-11 16:55 UTC. Time now 2017-Dec-11 20:33 UTC.
Position N 49°38' W 124°32'.

Length 40 m; draft 6 m.

Type: Tow > 200 m length. MMSI: 367357890.

Date/timePositionNaut miles runAvg speedWind from/ knotsBaromVisibWave heightAir tempDewpointWater temp
2017-Dec-11 16:55N 49°38' W 124°32'510.6
2017-Dec-11 16:27N 49°40' W 124°39'510.6
2017-Dec-11 16:00N 49°44' W 124°44'510.8
2017-Dec-11 15:30N 49°47' W 124°51'510.6
2017-Dec-11 15:00N 49°50' W 124°57'510.6
2017-Dec-11 14:30N 49°54' W 125°03'510.5
2017-Dec-11 14:00N 49°57' W 125°09'510.1
2017-Dec-11 13:30N 50°02' W 125°13'5 9.5
2017-Dec-11 13:00N 50°06' W 125°17'4 7.5
2017-Dec-11 12:30N 50°08' W 125°21'3 6.5
2017-Dec-11 12:00N 50°12' W 125°22'2 4.9
2017-Dec-11 11:30N 50°14' W 125°23'2 3.9
2017-Dec-11 11:00N 50°16' W 125°24'2 3.9
2017-Dec-11 10:30N 50°18' W 125°25'1 1.3
2017-Dec-11 10:00N 50°18' W 125°25'3 5.2
2017-Dec-11 09:30N 50°16' W 125°24'2 4.2
2017-Dec-11 08:56N 50°18' W 125°25'42 8.9
2017-Dec-11 04:13N 50°30' W 126°28'22 9.2
2017-Dec-11 01:49N 50°42' W 126°58'3 8.6
2017-Dec-11 01:27N 50°44' W 127°02'4 9.6
2017-Dec-11 01:00N 50°45' W 127°08'5 9.8
2017-Dec-11 00:30N 50°49' W 127°14'5 9.4
2017-Dec-11 00:00N 50°52' W 127°20'5 9.5
2017-Dec-10 23:30N 50°55' W 127°25'5 9.8
2017-Dec-10 23:00N 50°58' W 127°31'5 9.0
2017-Dec-10 22:30N 51°01' W 127°37'5 9.2
2017-Dec-10 22:00N 51°04' W 127°43'5 9.4
2017-Dec-10 21:30N 51°07' W 127°48'4 8.7
2017-Dec-10 21:00N 51°11' W 127°51'6 9.2
2017-Dec-10 20:23N 51°16' W 127°53'5 9.4
2017-Dec-10 19:53N 51°21' W 127°53'510.4
2017-Dec-10 19:23N 51°26' W 127°51'410.5
2017-Dec-10 19:00N 51°30' W 127°51'510.6
2017-Dec-10 18:30N 51°35' W 127°53'510.3
2017-Dec-10 18:00N 51°40' W 127°56'2 5.0
2017-Dec-10 17:30N 51°42' W 127°57'0 0.2
2017-Dec-10 17:00N 51°42' W 127°57'0 0.3
2017-Dec-10 16:30N 51°43' W 127°57'0 0.5
2017-Dec-10 16:00N 51°43' W 127°57'0 0.2
2017-Dec-10 15:30N 51°43' W 127°56'2 3.3
2017-Dec-10 15:00N 51°41' W 127°56'3 6.9
2017-Dec-10 14:30N 51°38' W 127°54'5 9.9
2017-Dec-10 14:00N 51°33' W 127°52'5 9.9
2017-Dec-10 13:29N 51°28' W 127°51'5 9.9
2017-Dec-10 12:59N 51°23' W 127°52'810.2
2017-Dec-10 12:14N 51°15' W 127°52'210.3
2017-Dec-10 12:00N 51°13' W 127°52'510.3
2017-Dec-10 11:30N 51°08' W 127°51'510.3
2017-Dec-10 11:00N 51°05' W 127°44'510.5
2017-Dec-10 10:30N 51°02' W 127°37'5 9.5
2017-Dec-10 10:00N 50°58' W 127°32'510.5
2017-Dec-10 09:30N 50°55' W 127°25'510.7
2017-Dec-10 09:00N 50°52' W 127°19'611.1
2017-Dec-10 08:26N 50°47' W 127°12'610.9
2017-Dec-10 07:51N 50°44' W 127°03'511.1
2017-Dec-10 07:26N 50°42' W 126°57'4810.3
2017-Dec-10 02:45N 50°23' W 125°47'10 9.5
2017-Dec-10 01:42N 50°21' W 125°32'3 9.7
2017-Dec-10 01:21N 50°20' W 125°27'3 9.4
2017-Dec-10 00:59N 50°17' W 125°24'510.6
2017-Dec-10 00:30N 50°13' W 125°22'510.7
2017-Dec-10 00:00N 50°07' W 125°21'612.3
2017-Dec-09 23:30N 50°03' W 125°14'612.1
2017-Dec-09 23:00N 49°57' W 125°09'610.9
2017-Dec-09 22:29N 49°54' W 125°03'510.3
2017-Dec-09 22:00N 49°51' W 124°56'510.4
2017-Dec-09 21:30N 49°48' W 124°50'510.6
2017-Dec-09 21:00N 49°45' W 124°43'510.3
2017-Dec-09 20:30N 49°41' W 124°37'610.5
2017-Dec-09 19:58N 49°37' W 124°31'510.4
2017-Dec-09 19:30N 49°35' W 124°25'810.4
2017-Dec-09 18:45N 49°31' W 124°14'510.4
2017-Dec-09 18:18N 49°29' W 124°08'310.4
2017-Dec-09 17:59N 49°27' W 124°04'610.5
2017-Dec-09 17:24N 49°23' W 123°56'510.6
2017-Dec-09 16:57N 49°20' W 123°50'510.8
2017-Dec-09 16:30N 49°17' W 123°45'610.8
2017-Dec-09 15:58N 49°14' W 123°38'510.5
2017-Dec-09 15:29N 49°11' W 123°32'510.4
2017-Dec-09 15:00N 49°07' W 123°26'510.5
2017-Dec-09 14:30N 49°04' W 123°20'611.0
2017-Dec-09 13:59N 49°00' W 123°14'611.1
2017-Dec-09 13:25N 48°56' W 123°06'510.6
2017-Dec-09 12:55N 48°52' W 123°00'410.2
2017-Dec-09 12:30N 48°50' W 122°55'610.1
2017-Dec-09 11:51N 48°46' W 122°47'3 9.6
2017-Dec-09 11:30N 48°43' W 122°44'4 8.8
2017-Dec-09 11:00N 48°39' W 122°43'4 8.2
2017-Dec-09 10:30N 48°35' W 122°45'4 7.6
2017-Dec-09 10:00N 48°31' W 122°45'4 7.5
2017-Dec-09 09:30N 48°28' W 122°44'4 7.8
2017-Dec-09 08:59N 48°24' W 122°44'5 8.6
2017-Dec-09 08:26N 48°19' W 122°46'4 9.3
2017-Dec-09 08:00N 48°15' W 122°48'610.4
2017-Dec-09 07:29N 48°10' W 122°44'1412.3
2017-Dec-09 06:22N 47°58' W 122°34'411.8
2017-Dec-09 06:00N 47°56' W 122°29'611.0
2017-Dec-09 05:30N 47°50' W 122°27'510.4
2017-Dec-09 05:00N 47°45' W 122°26'510.3
2017-Dec-09 04:30N 47°40' W 122°27'5 9.7
2017-Dec-09 04:00N 47°36' W 122°23'1 1.5
2017-Dec-09 03:31N 47°35' W 122°22'0 0.2
2017-Dec-09 03:00N 47°36' W 122°22'510.3
2017-Dec-09 02:30N 47°40' W 122°26'2 3.6
2017-Dec-09 02:00N 47°40' W 122°24'1 2.7
2017-Dec-09 01:30N 47°39' W 122°22'0 0.0
2017-Dec-09 01:00N 47°39' W 122°22'0 0.0
2017-Dec-07 04:30N 47°39' W 122°22'1 2.8
2017-Dec-07 04:00N 47°40' W 122°24'1 1.8
2017-Dec-07 03:31N 47°41' W 122°25'4 8.1
2017-Dec-07 03:00N 47°37' W 122°23'2 3.8
2017-Dec-07 02:30N 47°35' W 122°21'1 1.1
2017-Dec-07 02:00N 47°36' W 122°22'0 0.3
2017-Dec-07 01:30N 47°36' W 122°22'0 0.4
2017-Dec-07 01:01N 47°36' W 122°22'0 0.3
2017-Dec-07 00:30N 47°36' W 122°22'0 0.4
2017-Dec-07 00:01N 47°36' W 122°22'1 2.4
2017-Dec-06 23:30N 47°36' W 122°23'3 6.5
2017-Dec-06 23:01N 47°38' W 122°27'4 7.9
2017-Dec-06 22:31N 47°42' W 122°28'4 9.0
2017-Dec-06 22:01N 47°47' W 122°27'4 8.6
2017-Dec-06 21:30N 47°51' W 122°29'4 8.9
2017-Dec-06 21:00N 47°55' W 122°30'  
2017-Dec-04 05:00N 53°49' W 130°49'13 8.4
2017-Dec-04 03:25N 54°00' W 131°02'4 8.7
2017-Dec-04 03:00N 54°04' W 131°02'5 8.9
2017-Dec-04 02:30N 54°08' W 131°02'376 7.4
2017-Dec-02 00:00N 58°42' W 138°48'   030 / 101010.010.8 4.6
Track history (hours):
 
Tides and Currents Weather Stations Pressure Air Temp Water Temp Dewpoint Dewpoint Depression Visibility Wind Speed Wind Dir Waves Ship Positions

Alaska Titan

Owner: WESTERN TOWBOAT CO, Seattle, WA. More information available from US FCC via Universal Licensing System and Coast Guard Vessel Documentation Center.

Last reported at 2017-Dec-11 16:55 UTC. Time now 2017-Dec-11 20:33 UTC.
Position N 49°38' W 124°32'.

Length 40 m; draft 6 m.

Type: Tow > 200 m length. MMSI: 367357890.

Date/timePositionNaut miles runAvg speedWind from/ knotsBaromVisibWave heightAir tempDewpointWater temp
2017-Dec-11 16:55N 49°38' W 124°32'510.6
2017-Dec-11 16:27N 49°40' W 124°39'510.6
2017-Dec-11 16:00N 49°44' W 124°44'510.8
2017-Dec-11 15:30N 49°47' W 124°51'510.6
2017-Dec-11 15:00N 49°50' W 124°57'510.6
2017-Dec-11 14:30N 49°54' W 125°03'510.5
2017-Dec-11 14:00N 49°57' W 125°09'510.1
2017-Dec-11 13:30N 50°02' W 125°13'5 9.5
2017-Dec-11 13:00N 50°06' W 125°17'4 7.5
2017-Dec-11 12:30N 50°08' W 125°21'3 6.5
2017-Dec-11 12:00N 50°12' W 125°22'2 4.9
2017-Dec-11 11:30N 50°14' W 125°23'2 3.9
2017-Dec-11 11:00N 50°16' W 125°24'2 3.9
2017-Dec-11 10:30N 50°18' W 125°25'1 1.3
2017-Dec-11 10:00N 50°18' W 125°25'3 5.2
2017-Dec-11 09:30N 50°16' W 125°24'2 4.2
2017-Dec-11 08:56N 50°18' W 125°25'42 8.9
2017-Dec-11 04:13N 50°30' W 126°28'22 9.2
2017-Dec-11 01:49N 50°42' W 126°58'3 8.6
2017-Dec-11 01:27N 50°44' W 127°02'4 9.6
2017-Dec-11 01:00N 50°45' W 127°08'5 9.8
2017-Dec-11 00:30N 50°49' W 127°14'5 9.4
2017-Dec-11 00:00N 50°52' W 127°20'5 9.5
2017-Dec-10 23:30N 50°55' W 127°25'5 9.8
2017-Dec-10 23:00N 50°58' W 127°31'5 9.0
2017-Dec-10 22:30N 51°01' W 127°37'5 9.2
2017-Dec-10 22:00N 51°04' W 127°43'5 9.4
2017-Dec-10 21:30N 51°07' W 127°48'4 8.7
2017-Dec-10 21:00N 51°11' W 127°51'6 9.2
2017-Dec-10 20:23N 51°16' W 127°53'5 9.4
2017-Dec-10 19:53N 51°21' W 127°53'510.4
2017-Dec-10 19:23N 51°26' W 127°51'410.5
2017-Dec-10 19:00N 51°30' W 127°51'510.6
2017-Dec-10 18:30N 51°35' W 127°53'510.3
2017-Dec-10 18:00N 51°40' W 127°56'2 5.0
2017-Dec-10 17:30N 51°42' W 127°57'0 0.2
2017-Dec-10 17:00N 51°42' W 127°57'0 0.3
2017-Dec-10 16:30N 51°43' W 127°57'0 0.5
2017-Dec-10 16:00N 51°43' W 127°57'0 0.2
2017-Dec-10 15:30N 51°43' W 127°56'2 3.3
2017-Dec-10 15:00N 51°41' W 127°56'3 6.9
2017-Dec-10 14:30N 51°38' W 127°54'5 9.9
2017-Dec-10 14:00N 51°33' W 127°52'5 9.9
2017-Dec-10 13:29N 51°28' W 127°51'5 9.9
2017-Dec-10 12:59N 51°23' W 127°52'810.2
2017-Dec-10 12:14N 51°15' W 127°52'210.3
2017-Dec-10 12:00N 51°13' W 127°52'510.3
2017-Dec-10 11:30N 51°08' W 127°51'510.3
2017-Dec-10 11:00N 51°05' W 127°44'510.5
2017-Dec-10 10:30N 51°02' W 127°37'5 9.5
2017-Dec-10 10:00N 50°58' W 127°32'510.5
2017-Dec-10 09:30N 50°55' W 127°25'510.7
2017-Dec-10 09:00N 50°52' W 127°19'611.1
2017-Dec-10 08:26N 50°47' W 127°12'610.9
2017-Dec-10 07:51N 50°44' W 127°03'511.1
2017-Dec-10 07:26N 50°42' W 126°57'4810.3
2017-Dec-10 02:45N 50°23' W 125°47'10 9.5
2017-Dec-10 01:42N 50°21' W 125°32'3 9.7
2017-Dec-10 01:21N 50°20' W 125°27'3 9.4
2017-Dec-10 00:59N 50°17' W 125°24'510.6
2017-Dec-10 00:30N 50°13' W 125°22'510.7
2017-Dec-10 00:00N 50°07' W 125°21'612.3
2017-Dec-09 23:30N 50°03' W 125°14'612.1
2017-Dec-09 23:00N 49°57' W 125°09'610.9
2017-Dec-09 22:29N 49°54' W 125°03'510.3
2017-Dec-09 22:00N 49°51' W 124°56'510.4
2017-Dec-09 21:30N 49°48' W 124°50'510.6
2017-Dec-09 21:00N 49°45' W 124°43'510.3
2017-Dec-09 20:30N 49°41' W 124°37'610.5
2017-Dec-09 19:58N 49°37' W 124°31'510.4
2017-Dec-09 19:30N 49°35' W 124°25'810.4
2017-Dec-09 18:45N 49°31' W 124°14'510.4
2017-Dec-09 18:18N 49°29' W 124°08'310.4
2017-Dec-09 17:59N 49°27' W 124°04'610.5
2017-Dec-09 17:24N 49°23' W 123°56'510.6
2017-Dec-09 16:57N 49°20' W 123°50'510.8
2017-Dec-09 16:30N 49°17' W 123°45'610.8
2017-Dec-09 15:58N 49°14' W 123°38'510.5
2017-Dec-09 15:29N 49°11' W 123°32'510.4
2017-Dec-09 15:00N 49°07' W 123°26'510.5
2017-Dec-09 14:30N 49°04' W 123°20'611.0
2017-Dec-09 13:59N 49°00' W 123°14'611.1
2017-Dec-09 13:25N 48°56' W 123°06'510.6
2017-Dec-09 12:55N 48°52' W 123°00'410.2
2017-Dec-09 12:30N 48°50' W 122°55'610.1
2017-Dec-09 11:51N 48°46' W 122°47'3 9.6
2017-Dec-09 11:30N 48°43' W 122°44'4 8.8
2017-Dec-09 11:00N 48°39' W 122°43'4 8.2
2017-Dec-09 10:30N 48°35' W 122°45'4 7.6
2017-Dec-09 10:00N 48°31' W 122°45'4 7.5
2017-Dec-09 09:30N 48°28' W 122°44'4 7.8
2017-Dec-09 08:59N 48°24' W 122°44'5 8.6
2017-Dec-09 08:26N 48°19' W 122°46'4 9.3
2017-Dec-09 08:00N 48°15' W 122°48'610.4
2017-Dec-09 07:29N 48°10' W 122°44'1412.3
2017-Dec-09 06:22N 47°58' W 122°34'411.8
2017-Dec-09 06:00N 47°56' W 122°29'611.0
2017-Dec-09 05:30N 47°50' W 122°27'510.4
2017-Dec-09 05:00N 47°45' W 122°26'510.3
2017-Dec-09 04:30N 47°40' W 122°27'5 9.7
2017-Dec-09 04:00N 47°36' W 122°23'1 1.5
2017-Dec-09 03:31N 47°35' W 122°22'0 0.2
2017-Dec-09 03:00N 47°36' W 122°22'510.3
2017-Dec-09 02:30N 47°40' W 122°26'2 3.6
2017-Dec-09 02:00N 47°40' W 122°24'1 2.7
2017-Dec-09 01:30N 47°39' W 122°22'0 0.0
2017-Dec-09 01:00N 47°39' W 122°22'0 0.0
2017-Dec-07 04:30N 47°39' W 122°22'1 2.8
2017-Dec-07 04:00N 47°40' W 122°24'1 1.8
2017-Dec-07 03:31N 47°41' W 122°25'4 8.1
2017-Dec-07 03:00N 47°37' W 122°23'2 3.8
2017-Dec-07 02:30N 47°35' W 122°21'1 1.1
2017-Dec-07 02:00N 47°36' W 122°22'0 0.3
2017-Dec-07 01:30N 47°36' W 122°22'0 0.4
2017-Dec-07 01:01N 47°36' W 122°22'0 0.3
2017-Dec-07 00:30N 47°36' W 122°22'0 0.4
2017-Dec-07 00:01N 47°36' W 122°22'1 2.4
2017-Dec-06 23:30N 47°36' W 122°23'3 6.5
2017-Dec-06 23:01N 47°38' W 122°27'4 7.9
2017-Dec-06 22:31N 47°42' W 122°28'4 9.0
2017-Dec-06 22:01N 47°47' W 122°27'4 8.6
2017-Dec-06 21:30N 47°51' W 122°29'4 8.9
2017-Dec-06 21:00N 47°55' W 122°30'  
2017-Dec-04 05:00N 53°49' W 130°49'13 8.4
2017-Dec-04 03:25N 54°00' W 131°02'4 8.7
2017-Dec-04 03:00N 54°04' W 131°02'5 8.9
2017-Dec-04 02:30N 54°08' W 131°02'376 7.4
2017-Dec-02 00:00N 58°42' W 138°48'   030 / 101010.010.8 4.6

Dump ship's entire track history